createdAt,value
2018-12-30T00:00:41.574Z,6.04
2018-12-30T00:03:14.118Z,6.12
2018-12-30T00:05:46.112Z,6.12
2018-12-30T00:08:22.764Z,6.06
2018-12-30T00:10:57.908Z,6.22
2018-12-30T00:13:34.829Z,6.09
2018-12-30T00:16:07.763Z,6.15
2018-12-30T00:18:41.559Z,5.97
2018-12-30T00:21:16.381Z,6.00
2018-12-30T00:23:51.127Z,5.93
2018-12-30T00:26:23.143Z,6.15
2018-12-30T00:29:00.050Z,5.87
2018-12-30T00:31:36.196Z,6.02
2018-12-30T00:34:12.972Z,6.00
2018-12-30T00:36:50.611Z,6.06
2018-12-30T00:39:26.213Z,6.04
2018-12-30T00:41:58.529Z,5.89
2018-12-30T00:44:30.853Z,5.98
2018-12-30T00:47:02.969Z,5.94
2018-12-30T00:49:35.017Z,5.97
2018-12-30T00:52:09.061Z,5.89
2018-12-30T00:54:41.114Z,5.92
2018-12-30T00:57:14.699Z,5.75
2018-12-30T00:59:47.344Z,5.77
2018-12-30T01:02:20.299Z,5.72
2018-12-30T01:04:53.108Z,5.69
2018-12-30T01:07:26.240Z,5.72
2018-12-30T01:09:58.876Z,5.69
2018-12-30T01:12:31.033Z,5.72
2018-12-30T01:15:03.119Z,5.59
2018-12-30T01:17:36.012Z,5.89
2018-12-30T01:20:11.016Z,5.68
2018-12-30T01:22:43.811Z,5.70
2018-12-30T01:25:15.435Z,5.65
2018-12-30T01:27:47.059Z,5.56
2018-12-30T01:30:18.785Z,5.43
2018-12-30T01:32:50.417Z,5.41
2018-12-30T01:35:21.978Z,5.43
2018-12-30T01:37:53.669Z,5.41
2018-12-30T01:40:25.243Z,5.27
2018-12-30T01:42:57.938Z,5.28
2018-12-30T01:45:30.513Z,5.25
2018-12-30T01:48:02.546Z,5.22
2018-12-30T01:50:35.054Z,5.25
2018-12-30T01:53:07.653Z,5.30
2018-12-30T01:55:40.635Z,5.28
2018-12-30T01:58:13.995Z,5.32
2018-12-30T02:00:50.255Z,5.30
2018-12-30T02:03:22.276Z,5.42
2018-12-30T02:05:54.795Z,5.26
2018-12-30T02:08:26.817Z,5.41
2018-12-30T02:10:59.401Z,5.19
2018-12-30T02:13:31.500Z,5.27
2018-12-30T02:16:03.854Z,5.24
2018-12-30T02:18:36.067Z,5.08
2018-12-30T02:21:18.558Z,5.33
2018-12-30T02:23:50.396Z,5.12
2018-12-30T02:26:22.723Z,5.14
2018-12-30T02:28:55.292Z,5.12
2018-12-30T02:31:29.214Z,5.08
2018-12-30T02:34:00.846Z,5.16
2018-12-30T02:36:32.410Z,5.11
2018-12-30T02:39:06.770Z,5.56
2018-12-30T02:41:40.798Z,5.12
2018-12-30T02:44:16.506Z,5.15
2018-12-30T02:46:49.808Z,5.16
2018-12-30T02:49:22.093Z,5.25
2018-12-30T02:51:54.176Z,5.11
2018-12-30T02:54:26.337Z,5.13
2018-12-30T02:56:58.030Z,5.17
2018-12-30T02:59:29.824Z,5.32
2018-12-30T03:02:04.329Z,5.27
2018-12-30T03:04:37.350Z,5.10
2018-12-30T03:07:10.698Z,5.22
2018-12-30T03:09:46.472Z,5.06
2018-12-30T03:12:18.643Z,5.20
2018-12-30T03:14:56.049Z,5.04
2018-12-30T03:17:27.842Z,5.05
2018-12-30T03:19:59.841Z,5.06
2018-12-30T03:22:31.477Z,5.05
2018-12-30T03:25:03.095Z,5.02
2018-12-30T03:27:35.514Z,5.35
2018-12-30T03:30:09.546Z,5.15
2018-12-30T03:32:45.243Z,5.20
2018-12-30T03:35:17.158Z,5.24
2018-12-30T03:37:49.939Z,5.31
2018-12-30T03:40:23.255Z,5.09
2018-12-30T03:42:55.815Z,5.15
2018-12-30T03:45:27.824Z,5.07
2018-12-30T03:48:03.358Z,5.16
2018-12-30T03:50:42.473Z,5.12
2018-12-30T03:53:14.920Z,5.06
2018-12-30T03:55:50.072Z,5.19
2018-12-30T03:58:22.084Z,5.15
2018-12-30T04:00:55.242Z,5.19
2018-12-30T04:03:28.860Z,5.11
2018-12-30T04:06:01.313Z,5.03
2018-12-30T04:08:34.346Z,5.08
2018-12-30T04:11:06.609Z,5.21
2018-12-30T04:13:39.855Z,5.19
2018-12-30T04:16:12.871Z,5.17
2018-12-30T04:18:45.483Z,5.14
2018-12-30T04:21:21.327Z,5.15
2018-12-30T04:23:54.305Z,5.20
2018-12-30T04:26:26.368Z,5.21
2018-12-30T04:28:58.631Z,5.07
2018-12-30T04:31:31.386Z,5.00
2018-12-30T04:34:03.496Z,5.10
2018-12-30T04:36:38.918Z,5.08
2018-12-30T04:39:11.587Z,5.03
2018-12-30T04:41:43.483Z,5.08
2018-12-30T04:44:15.860Z,5.15
2018-12-30T04:46:47.519Z,5.18
2018-12-30T04:49:19.091Z,4.93
2018-12-30T04:51:50.684Z,5.24
2018-12-30T04:54:22.249Z,4.98
2018-12-30T04:56:53.820Z,5.01
2018-12-30T04:59:25.396Z,5.17
2018-12-30T05:01:57.030Z,5.17
2018-12-30T05:04:28.686Z,5.12
2018-12-30T05:07:00.259Z,5.33
2018-12-30T05:09:33.247Z,5.14
2018-12-30T05:12:04.935Z,5.06
2018-12-30T05:14:37.559Z,5.01
2018-12-30T05:17:09.184Z,5.10
2018-12-30T05:19:40.754Z,5.16
2018-12-30T05:22:12.328Z,5.36
2018-12-30T05:24:43.895Z,5.47
2018-12-30T05:27:15.475Z,5.44
2018-12-30T05:29:47.046Z,5.38
2018-12-30T05:32:19.705Z,5.46
2018-12-30T05:34:51.272Z,5.33
2018-12-30T05:37:23.151Z,5.29
2018-12-30T05:39:55.133Z,5.48
2018-12-30T05:42:27.138Z,5.45
2018-12-30T05:44:58.706Z,5.31
2018-12-30T05:47:32.114Z,5.38
2018-12-30T05:50:05.587Z,5.45
2018-12-30T05:52:42.898Z,5.61
2018-12-30T05:55:14.782Z,5.29
2018-12-30T05:57:47.308Z,5.46
2018-12-30T06:00:19.328Z,5.52
2018-12-30T06:02:52.585Z,5.38
2018-12-30T06:05:24.366Z,5.50
2018-12-30T06:07:55.996Z,5.46
2018-12-30T06:10:27.614Z,5.45
2018-12-30T06:12:59.234Z,5.58
2018-12-30T06:15:30.871Z,5.73
2018-12-30T06:18:02.448Z,5.56
2018-12-30T06:20:34.076Z,5.62
2018-12-30T06:23:05.690Z,5.42
2018-12-30T06:25:37.324Z,5.46
2018-12-30T06:28:08.924Z,5.61
2018-12-30T06:30:40.537Z,5.81
2018-12-30T06:33:12.157Z,5.57
2018-12-30T06:35:43.771Z,5.64
2018-12-30T06:38:15.370Z,5.52
2018-12-30T06:40:47.044Z,5.59
2018-12-30T06:43:18.653Z,5.58
2018-12-30T06:45:50.305Z,5.70
2018-12-30T06:48:21.889Z,5.84
2018-12-30T06:50:53.464Z,5.59
2018-12-30T06:53:25.019Z,5.59
2018-12-30T06:55:56.572Z,5.59
2018-12-30T06:58:28.136Z,5.70
2018-12-30T07:00:59.722Z,5.65
2018-12-30T07:03:31.670Z,5.85
2018-12-30T07:06:03.365Z,5.66
2018-12-30T07:08:35.174Z,5.69
2018-12-30T07:11:06.774Z,5.84
2018-12-30T07:13:38.503Z,5.76
2018-12-30T07:16:10.162Z,5.74
2018-12-30T07:18:45.872Z,5.74
2018-12-30T07:21:17.530Z,5.71
2018-12-30T07:23:49.125Z,5.72
2018-12-30T07:26:20.703Z,5.90
2018-12-30T07:28:56.371Z,5.88
2018-12-30T07:31:28.173Z,5.92
2018-12-30T07:34:04.836Z,5.74
2018-12-30T07:36:42.262Z,5.82
2018-12-30T07:39:14.268Z,5.79
2018-12-30T07:41:45.904Z,5.77
2018-12-30T07:44:17.867Z,5.94
2018-12-30T07:47:06.678Z,5.80
2018-12-30T07:49:46.601Z,5.86
2018-12-30T07:52:18.503Z,5.87
2018-12-30T07:54:50.151Z,5.86
2018-12-30T07:57:21.947Z,5.84
2018-12-30T07:59:56.046Z,5.85
2018-12-30T08:02:28.444Z,6.01
2018-12-30T08:05:00.014Z,5.95
2018-12-30T08:07:31.568Z,6.03
2018-12-30T08:10:03.186Z,6.16
2018-12-30T08:12:34.919Z,6.62
2018-12-30T08:15:06.849Z,6.84
2018-12-30T08:17:38.477Z,7.01
2018-12-30T08:20:10.163Z,7.04
2018-12-30T08:22:41.885Z,6.94
2018-12-30T08:25:13.556Z,6.85
2018-12-30T08:27:45.199Z,6.84
2018-12-30T08:30:16.868Z,6.91
2018-12-30T08:32:48.568Z,7.02
2018-12-30T08:35:20.188Z,6.97
2018-12-30T08:37:51.879Z,7.43
2018-12-30T08:40:23.601Z,7.39
2018-12-30T08:42:55.345Z,7.16
2018-12-30T08:45:28.093Z,7.17
2018-12-30T08:47:59.972Z,7.27
2018-12-30T08:50:31.729Z,6.96
2018-12-30T08:53:03.610Z,7.11
2018-12-30T08:55:35.233Z,7.19
2018-12-30T08:58:06.894Z,7.33
2018-12-30T09:00:38.578Z,7.32
2018-12-30T09:03:10.195Z,7.32
2018-12-30T09:05:41.781Z,6.91
2018-12-30T09:08:13.616Z,6.78
2018-12-30T09:10:45.453Z,6.82
2018-12-30T09:13:17.133Z,6.83
2018-12-30T09:15:48.858Z,6.87
2018-12-30T09:18:20.569Z,6.87
2018-12-30T09:20:52.309Z,6.87
2018-12-30T09:23:24.078Z,6.76
2018-12-30T09:25:55.756Z,6.72
2018-12-30T09:28:27.452Z,6.70
2018-12-30T09:30:59.133Z,6.70
2018-12-30T09:33:30.777Z,6.65
2018-12-30T09:36:02.370Z,6.64
2018-12-30T09:38:34.012Z,6.75
2018-12-30T09:41:10.936Z,6.75
2018-12-30T09:43:47.586Z,6.71
2018-12-30T09:46:20.379Z,6.88
2018-12-30T09:48:52.613Z,7.14
2018-12-30T09:51:26.115Z,6.79
2018-12-30T09:53:58.807Z,6.95
2018-12-30T09:56:31.384Z,6.81
2018-12-30T09:59:04.426Z,7.20
2018-12-30T10:01:36.568Z,6.95
2018-12-30T10:04:08.224Z,7.36
2018-12-30T10:06:40.001Z,7.33
2018-12-30T10:09:11.723Z,7.30
2018-12-30T10:11:43.361Z,7.39
2018-12-30T10:14:15.542Z,7.32
2018-12-30T10:16:48.519Z,7.46
2018-12-30T10:19:20.402Z,7.50
2018-12-30T10:21:53.787Z,7.55
2018-12-30T10:24:26.461Z,7.39
2018-12-30T10:27:00.369Z,7.49
2018-12-30T10:29:32.776Z,7.49
2018-12-30T10:32:05.411Z,7.51
2018-12-30T10:34:38.390Z,7.42
2018-12-30T10:37:11.451Z,7.59
2018-12-30T10:39:44.700Z,7.52
2018-12-30T10:42:17.767Z,7.38
2018-12-30T10:44:50.679Z,7.29
2018-12-30T10:47:22.878Z,7.41
2018-12-30T10:49:54.587Z,7.07
2018-12-30T10:52:27.041Z,6.99
2018-12-30T10:54:59.549Z,7.13
2018-12-30T10:57:32.336Z,7.40
2018-12-30T11:00:04.348Z,7.18
2018-12-30T11:02:36.051Z,7.14
2018-12-30T11:05:08.252Z,7.18
2018-12-30T11:07:39.922Z,6.86
2018-12-30T11:10:11.692Z,6.82
2018-12-30T11:12:43.301Z,6.85
2018-12-30T11:15:14.908Z,6.80
2018-12-30T11:17:46.510Z,6.87
2018-12-30T11:20:18.435Z,6.90
2018-12-30T11:22:50.303Z,6.65
2018-12-30T11:25:22.008Z,6.71
2018-12-30T11:27:54.781Z,6.77
2018-12-30T11:30:26.882Z,6.68
2018-12-30T11:32:58.487Z,6.42
2018-12-30T11:35:31.150Z,6.57
2018-12-30T11:38:02.926Z,6.58
2018-12-30T11:40:34.554Z,6.41
2018-12-30T11:43:06.364Z,6.37
2018-12-30T11:45:38.118Z,6.34
2018-12-30T11:48:09.728Z,6.49
2018-12-30T11:50:41.860Z,6.24
2018-12-30T11:53:13.500Z,6.35
2018-12-30T11:55:45.083Z,6.15
2018-12-30T11:58:16.764Z,6.09
2018-12-30T12:00:48.557Z,6.21
2018-12-30T12:03:20.151Z,6.27
2018-12-30T12:05:51.761Z,6.21
2018-12-30T12:08:23.351Z,6.18
2018-12-30T12:10:54.953Z,6.27
2018-12-30T12:13:26.813Z,6.37
2018-12-30T12:15:58.467Z,6.37
2018-12-30T12:18:30.113Z,6.20
2018-12-30T12:21:01.803Z,6.06
2018-12-30T12:23:33.471Z,6.13
2018-12-30T12:26:05.261Z,6.19
2018-12-30T12:28:38.843Z,6.03
2018-12-30T12:31:10.510Z,6.05
2018-12-30T12:33:42.146Z,6.33
2018-12-30T12:36:14.124Z,5.91
2018-12-30T12:38:45.807Z,5.92
2018-12-30T12:41:17.448Z,5.83
2018-12-30T12:43:49.078Z,5.92
2018-12-30T12:46:20.752Z,5.99
2018-12-30T12:48:52.638Z,6.08
2018-12-30T12:51:24.217Z,5.88
2018-12-30T12:53:55.942Z,6.15
2018-12-30T12:56:27.531Z,6.25
2018-12-30T12:58:59.168Z,6.09
2018-12-30T13:01:30.797Z,5.90
2018-12-30T13:04:02.595Z,5.79
2018-12-30T13:06:34.153Z,5.86
2018-12-30T13:09:07.898Z,5.83
2018-12-30T13:11:39.516Z,5.79
2018-12-30T13:14:11.213Z,5.82
2018-12-30T13:16:42.896Z,5.74
2018-12-30T13:19:14.488Z,5.82
2018-12-30T13:21:47.183Z,5.92
2018-12-30T13:24:18.791Z,5.78
2018-12-30T13:26:50.432Z,5.73
2018-12-30T13:29:22.063Z,5.79
2018-12-30T13:31:53.650Z,5.86
2018-12-30T13:34:25.318Z,5.90
2018-12-30T13:36:56.987Z,6.15
2018-12-30T13:39:28.709Z,5.90
2018-12-30T13:42:00.494Z,6.03
2018-12-30T13:44:32.159Z,5.99
2018-12-30T13:47:03.809Z,5.72
2018-12-30T13:49:35.599Z,5.97
2018-12-30T13:52:08.237Z,5.83
2018-12-30T13:54:47.456Z,5.82
2018-12-30T13:57:13.569Z,5.71
2018-12-30T13:59:45.374Z,5.75
2018-12-30T14:02:17.559Z,5.62
2018-12-30T14:04:49.184Z,5.75
2018-12-30T14:07:20.794Z,5.79
2018-12-30T14:09:52.413Z,5.68
2018-12-30T14:12:24.121Z,5.70
2018-12-30T14:14:55.731Z,5.73
2018-12-30T14:17:27.559Z,5.55
2018-12-30T14:20:01.946Z,5.70
2018-12-30T14:22:35.715Z,5.82
2018-12-30T14:25:07.647Z,5.78
2018-12-30T14:27:39.513Z,5.84
2018-12-30T14:30:11.521Z,5.75
2018-12-30T14:32:43.231Z,5.55
2018-12-30T14:35:15.185Z,5.62
2018-12-30T14:37:47.059Z,5.58
2018-12-30T14:40:18.800Z,5.54
2018-12-30T14:42:50.418Z,5.63
2018-12-30T14:45:23.111Z,5.54
2018-12-30T14:47:55.043Z,5.60
2018-12-30T14:50:26.763Z,5.43
2018-12-30T14:52:58.714Z,5.65
2018-12-30T14:55:30.479Z,5.77
2018-12-30T14:58:02.122Z,5.45
2018-12-30T15:00:33.887Z,5.63
2018-12-30T15:03:05.615Z,5.59
2018-12-30T15:05:37.308Z,5.67
2018-12-30T15:08:09.014Z,5.59
2018-12-30T15:10:40.702Z,5.53
2018-12-30T15:13:12.276Z,5.54
2018-12-30T15:15:43.954Z,5.46
2018-12-30T15:18:15.564Z,5.53
2018-12-30T15:20:47.171Z,5.62
2018-12-30T15:23:18.874Z,5.60
2018-12-30T15:25:50.580Z,5.60
2018-12-30T15:28:22.302Z,5.72
2018-12-30T15:30:54.023Z,5.45
2018-12-30T15:33:25.650Z,5.61
2018-12-30T15:35:57.338Z,5.42
2018-12-30T15:38:29.170Z,5.56
2018-12-30T15:41:01.170Z,5.46
2018-12-30T15:43:32.900Z,5.41
2018-12-30T15:46:04.629Z,5.56
2018-12-30T15:48:36.306Z,5.58
2018-12-30T15:51:08.219Z,5.53
2018-12-30T15:53:41.160Z,5.38
2018-12-30T15:56:12.998Z,5.55
2018-12-30T15:58:44.699Z,5.50
2018-12-30T16:01:16.455Z,5.41
2018-12-30T16:03:48.190Z,5.40
2018-12-30T16:06:19.745Z,5.53
2018-12-30T16:08:51.367Z,5.45
2018-12-30T16:11:23.032Z,5.56
2018-12-30T16:13:54.645Z,5.70
2018-12-30T16:16:27.441Z,5.48
2018-12-30T16:18:59.026Z,5.61
2018-12-30T16:21:30.702Z,5.68
2018-12-30T16:24:02.272Z,5.53
2018-12-30T16:26:34.110Z,5.59
2018-12-30T16:29:05.955Z,5.51
2018-12-30T16:31:37.632Z,5.66
2018-12-30T16:34:09.233Z,5.39
2018-12-30T16:36:41.069Z,5.52
2018-12-30T16:39:12.889Z,5.33
2018-12-30T16:41:44.460Z,5.57
2018-12-30T16:44:16.073Z,5.32
2018-12-30T16:46:47.785Z,5.41
2018-12-30T16:49:19.501Z,5.49
2018-12-30T16:51:51.199Z,5.43
2018-12-30T16:54:22.826Z,5.41
2018-12-30T16:56:54.475Z,5.49
2018-12-30T16:59:26.155Z,5.51
2018-12-30T17:01:57.845Z,5.45
2018-12-30T17:04:30.757Z,5.70
2018-12-30T17:07:02.540Z,6.15
2018-12-30T17:09:34.495Z,5.57
2018-12-30T17:12:06.142Z,5.49
2018-12-30T17:14:37.930Z,5.40
2018-12-30T17:17:09.628Z,5.31
2018-12-30T17:19:41.408Z,5.28
2018-12-30T17:22:13.145Z,5.40
2018-12-30T17:24:44.901Z,5.21
2018-12-30T17:27:16.612Z,5.19
2018-12-30T17:29:48.193Z,5.12
2018-12-30T17:32:19.870Z,5.15
2018-12-30T17:34:51.476Z,5.10
2018-12-30T17:37:23.229Z,5.04
2018-12-30T17:39:55.218Z,5.12
2018-12-30T17:42:29.305Z,5.11
2018-12-30T17:45:01.368Z,5.23
2018-12-30T17:47:33.691Z,5.34
2018-12-30T17:50:07.759Z,5.20
2018-12-30T17:52:39.719Z,5.08
2018-12-30T17:55:13.905Z,5.34
2018-12-30T17:57:47.053Z,5.25
2018-12-30T18:00:18.859Z,5.25
2018-12-30T18:02:54.654Z,5.12
2018-12-30T18:05:26.377Z,5.11
2018-12-30T18:07:58.026Z,5.16
2018-12-30T18:10:34.177Z,5.08
2018-12-30T18:13:07.014Z,5.51
2018-12-30T18:15:47.842Z,5.42
2018-12-30T18:18:21.039Z,5.72
2018-12-30T18:20:53.479Z,5.54
2018-12-30T18:23:25.335Z,5.10
2018-12-30T18:25:58.761Z,5.51
2018-12-30T18:28:39.098Z,5.06
2018-12-30T18:31:09.908Z,4.90
2018-12-30T18:33:41.620Z,5.02
2018-12-30T18:36:13.239Z,4.77
2018-12-30T18:38:44.971Z,4.85
2018-12-30T18:41:16.969Z,4.90
2018-12-30T18:43:48.647Z,4.67
2018-12-30T18:46:20.238Z,4.86
2018-12-30T18:48:51.887Z,4.70
2018-12-30T18:51:23.756Z,4.58
2018-12-30T18:53:55.435Z,4.65
2018-12-30T18:56:27.185Z,4.63
2018-12-30T18:58:58.958Z,4.77
2018-12-30T19:01:30.672Z,4.72
2018-12-30T19:04:02.321Z,4.69
2018-12-30T19:06:34.029Z,4.65
2018-12-30T19:09:07.175Z,5.00
2018-12-30T19:11:38.873Z,4.74
2018-12-30T19:14:10.573Z,4.65
2018-12-30T19:16:42.302Z,4.73
2018-12-30T19:19:13.911Z,4.70
2018-12-30T19:21:45.613Z,4.56
2018-12-30T19:24:17.401Z,4.87
2018-12-30T19:26:49.179Z,4.87
2018-12-30T19:29:21.094Z,5.04
2018-12-30T19:31:52.701Z,5.03
2018-12-30T19:34:24.354Z,5.02
2018-12-30T19:36:57.989Z,4.95
2018-12-30T19:39:31.336Z,4.98
2018-12-30T19:42:02.931Z,4.82
2018-12-30T19:44:34.618Z,4.94
2018-12-30T19:47:06.590Z,4.82
2018-12-30T19:49:38.214Z,4.76
2018-12-30T19:52:09.958Z,4.70
2018-12-30T19:54:41.615Z,4.66
2018-12-30T19:57:13.451Z,4.72
2018-12-30T19:59:45.097Z,4.81
2018-12-30T20:02:16.824Z,4.76
2018-12-30T20:04:49.260Z,4.74
2018-12-30T20:07:20.945Z,4.68
2018-12-30T20:09:52.564Z,4.69
2018-12-30T20:12:25.069Z,4.64
2018-12-30T20:15:00.908Z,4.71
2018-12-30T20:17:36.908Z,4.78
2018-12-30T20:20:17.001Z,4.70
2018-12-30T20:22:50.507Z,4.70
2018-12-30T20:25:22.299Z,4.66
2018-12-30T20:27:54.156Z,4.73
2018-12-30T20:30:25.781Z,4.92
2018-12-30T20:32:57.606Z,4.64
2018-12-30T20:35:29.312Z,4.78
2018-12-30T20:38:01.102Z,4.64
2018-12-30T20:40:32.730Z,4.68
2018-12-30T20:43:04.362Z,4.70
2018-12-30T20:45:36.053Z,5.04
2018-12-30T20:48:08.057Z,5.02
2018-12-30T20:50:39.696Z,4.76
2018-12-30T20:53:11.422Z,4.62
2018-12-30T20:55:43.259Z,4.61
2018-12-30T20:58:14.875Z,4.80
2018-12-30T21:00:46.604Z,4.69
2018-12-30T21:03:30.187Z,4.71
2018-12-30T21:06:05.397Z,4.72
2018-12-30T21:08:54.352Z,4.57
2018-12-30T21:11:33.084Z,4.56
2018-12-30T21:14:11.124Z,4.63
2018-12-30T21:16:48.044Z,4.53
2018-12-30T21:19:20.349Z,4.54
2018-12-30T21:21:51.985Z,4.62
2018-12-30T21:24:23.652Z,4.66
2018-12-30T21:26:55.510Z,4.74
2018-12-30T21:29:27.125Z,4.80
2018-12-30T21:32:04.774Z,4.63
2018-12-30T21:34:36.445Z,4.55
2018-12-30T21:37:08.145Z,4.58
2018-12-30T21:39:39.774Z,4.93
2018-12-30T21:42:11.369Z,4.87
2018-12-30T21:44:42.996Z,4.66
2018-12-30T21:47:14.591Z,4.78
2018-12-30T21:49:46.279Z,4.63
2018-12-30T21:52:17.941Z,4.66
2018-12-30T21:54:49.623Z,4.49
2018-12-30T21:57:21.247Z,4.75
2018-12-30T21:59:52.852Z,4.51
2018-12-30T22:02:24.551Z,4.50
2018-12-30T22:04:56.206Z,4.50
2018-12-30T22:07:27.847Z,4.38
2018-12-30T22:09:59.466Z,4.58
2018-12-30T22:12:31.066Z,4.48
2018-12-30T22:15:19.679Z,4.42
2018-12-30T22:17:51.304Z,4.42
2018-12-30T22:20:22.917Z,4.47
2018-12-30T22:22:54.764Z,4.33
2018-12-30T22:25:26.497Z,4.46
2018-12-30T22:27:58.237Z,4.40
2018-12-30T22:30:29.908Z,4.29
2018-12-30T22:33:01.532Z,4.22
2018-12-30T22:35:33.173Z,4.35
2018-12-30T22:38:04.746Z,4.52
2018-12-30T22:40:36.387Z,4.38
2018-12-30T22:43:08.182Z,4.30
2018-12-30T22:45:40.251Z,4.42
2018-12-30T22:48:11.934Z,4.36
2018-12-30T22:50:43.562Z,4.20
2018-12-30T22:53:15.246Z,4.42
2018-12-30T22:55:46.934Z,4.38
2018-12-30T22:58:18.534Z,4.40
2018-12-30T23:01:06.875Z,4.27
2018-12-30T23:03:38.701Z,4.36
2018-12-30T23:06:10.388Z,4.27
2018-12-30T23:08:43.124Z,4.30
2018-12-30T23:11:14.812Z,4.41
2018-12-30T23:13:46.410Z,4.47
2018-12-30T23:16:18.085Z,4.28
2018-12-30T23:18:49.638Z,4.34
2018-12-30T23:21:21.240Z,4.33
2018-12-30T23:23:52.920Z,4.39
2018-12-30T23:26:24.538Z,4.23
2018-12-30T23:28:56.245Z,4.29
2018-12-30T23:31:27.934Z,4.27
2018-12-30T23:33:59.525Z,4.23
2018-12-30T23:36:31.110Z,4.32
2018-12-30T23:39:02.774Z,4.14
2018-12-30T23:41:36.027Z,4.17
2018-12-30T23:44:09.295Z,4.16
2018-12-30T23:46:41.237Z,4.09
2018-12-30T23:49:12.804Z,4.11
2018-12-30T23:51:44.434Z,4.05
2018-12-30T23:54:16.082Z,4.16
2018-12-30T23:56:47.645Z,4.02
2018-12-30T23:59:19.219Z,3.97
